sensor_id;sensor_type;location;lat;lon;timestamp;P1;durP1;ratioP1;P2;durP2;ratioP2
9076;SDS011;4574;51.072;17.174;2023-02-28T00:00:05;47.27;;;22.13;;
9076;SDS011;4574;51.072;17.174;2023-02-28T00:02:38;66.17;;;25.63;;
9076;SDS011;4574;51.072;17.174;2023-02-28T00:05:08;71.70;;;27.63;;
9076;SDS011;4574;51.072;17.174;2023-02-28T00:07:37;46.43;;;21.87;;
9076;SDS011;4574;51.072;17.174;2023-02-28T00:10:07;50.20;;;20.20;;
9076;SDS011;4574;51.072;17.174;2023-02-28T00:12:37;39.27;;;17.90;;
9076;SDS011;4574;51.072;17.174;2023-02-28T00:15:06;31.73;;;16.80;;
9076;SDS011;4574;51.072;17.174;2023-02-28T00:17:36;37.43;;;17.30;;
9076;SDS011;4574;51.072;17.174;2023-02-28T00:20:07;43.10;;;18.43;;
9076;SDS011;4574;51.072;17.174;2023-02-28T00:22:38;37.37;;;17.80;;
9076;SDS011;4574;51.072;17.174;2023-02-28T00:25:08;37.97;;;17.13;;
9076;SDS011;4574;51.072;17.174;2023-02-28T00:27:38;36.90;;;16.80;;
9076;SDS011;4574;51.072;17.174;2023-02-28T00:30:08;37.77;;;17.47;;
9076;SDS011;4574;51.072;17.174;2023-02-28T00:32:40;31.20;;;15.53;;
9076;SDS011;4574;51.072;17.174;2023-02-28T00:35:10;34.30;;;16.00;;
9076;SDS011;4574;51.072;17.174;2023-02-28T00:37:39;34.77;;;15.40;;
9076;SDS011;4574;51.072;17.174;2023-02-28T00:40:08;31.33;;;15.50;;
9076;SDS011;4574;51.072;17.174;2023-02-28T00:42:39;54.20;;;22.27;;
9076;SDS011;4574;51.072;17.174;2023-02-28T00:45:08;58.33;;;23.43;;
9076;SDS011;4574;51.072;17.174;2023-02-28T00:47:37;45.60;;;20.17;;
9076;SDS011;4574;51.072;17.174;2023-02-28T00:50:08;40.47;;;18.87;;
9076;SDS011;4574;51.072;17.174;2023-02-28T00:52:38;34.47;;;16.57;;
9076;SDS011;4574;51.072;17.174;2023-02-28T00:55:07;35.00;;;15.50;;
9076;SDS011;4574;51.072;17.174;2023-02-28T00:57:36;35.73;;;16.67;;
9076;SDS011;4574;51.072;17.174;2023-02-28T01:00:06;36.73;;;17.97;;
9076;SDS011;4574;51.072;17.174;2023-02-28T01:02:36;33.53;;;16.27;;
9076;SDS011;4574;51.072;17.174;2023-02-28T01:05:05;31.03;;;16.00;;
9076;SDS011;4574;51.072;17.174;2023-02-28T01:07:35;33.60;;;16.17;;
9076;SDS011;4574;51.072;17.174;2023-02-28T01:10:05;33.57;;;16.40;;
9076;SDS011;4574;51.072;17.174;2023-02-28T01:12:34;39.27;;;17.60;;
9076;SDS011;4574;51.072;17.174;2023-02-28T01:15:03;35.50;;;17.23;;
9076;SDS011;4574;51.072;17.174;2023-02-28T01:17:32;33.90;;;17.40;;
9076;SDS011;4574;51.072;17.174;2023-02-28T01:20:00;35.67;;;16.60;;
9076;SDS011;4574;51.072;17.174;2023-02-28T01:22:31;35.23;;;16.33;;
9076;SDS011;4574;51.072;17.174;2023-02-28T01:24:59;37.57;;;18.33;;
9076;SDS011;4574;51.072;17.174;2023-02-28T01:27:28;33.07;;;17.87;;
9076;SDS011;4574;51.072;17.174;2023-02-28T01:29:56;36.00;;;17.60;;
9076;SDS011;4574;51.072;17.174;2023-02-28T01:32:25;36.70;;;17.60;;
9076;SDS011;4574;51.072;17.174;2023-02-28T01:34:54;35.73;;;16.73;;
9076;SDS011;4574;51.072;17.174;2023-02-28T01:37:22;35.40;;;18.17;;
9076;SDS011;4574;51.072;17.174;2023-02-28T01:39:53;35.63;;;18.00;;
9076;SDS011;4574;51.072;17.174;2023-02-28T01:42:21;38.33;;;19.33;;
9076;SDS011;4574;51.072;17.174;2023-02-28T01:44:55;39.03;;;18.60;;
9076;SDS011;4574;51.072;17.174;2023-02-28T01:47:30;46.57;;;20.97;;
9076;SDS011;4574;51.072;17.174;2023-02-28T01:50:05;44.83;;;21.77;;
9076;SDS011;4574;51.072;17.174;2023-02-28T01:52:37;41.87;;;20.83;;
9076;SDS011;4574;51.072;17.174;2023-02-28T01:55:08;40.23;;;20.43;;
9076;SDS011;4574;51.072;17.174;2023-02-28T01:57:41;43.13;;;21.63;;
9076;SDS011;4574;51.072;17.174;2023-02-28T02:00:16;53.60;;;24.03;;
9076;SDS011;4574;51.072;17.174;2023-02-28T02:02:48;44.53;;;23.73;;
9076;SDS011;4574;51.072;17.174;2023-02-28T02:05:19;46.13;;;22.50;;
9076;SDS011;4574;51.072;17.174;2023-02-28T02:07:50;51.50;;;22.67;;
9076;SDS011;4574;51.072;17.174;2023-02-28T02:10:24;47.87;;;23.00;;
9076;SDS011;4574;51.072;17.174;2023-02-28T02:13:05;46.80;;;22.50;;
9076;SDS011;4574;51.072;17.174;2023-02-28T02:15:42;37.17;;;17.80;;
9076;SDS011;4574;51.072;17.174;2023-02-28T02:18:21;33.07;;;17.07;;
9076;SDS011;4574;51.072;17.174;2023-02-28T02:27:04;40.27;;;19.27;;
9076;SDS011;4574;51.072;17.174;2023-02-28T02:32:56;59.07;;;27.80;;
9076;SDS011;4574;51.072;17.174;2023-02-28T02:35:39;54.17;;;26.87;;
9076;SDS011;4574;51.072;17.174;2023-02-28T02:38:14;55.93;;;28.30;;
9076;SDS011;4574;51.072;17.174;2023-02-28T02:40:47;59.93;;;29.33;;
9076;SDS011;4574;51.072;17.174;2023-02-28T02:43:22;48.27;;;25.00;;
9076;SDS011;4574;51.072;17.174;2023-02-28T02:45:57;48.50;;;24.23;;
9076;SDS011;4574;51.072;17.174;2023-02-28T02:48:31;44.30;;;22.40;;
9076;SDS011;4574;51.072;17.174;2023-02-28T02:51:04;39.53;;;21.57;;
9076;SDS011;4574;51.072;17.174;2023-02-28T02:53:40;38.47;;;21.00;;
9076;SDS011;4574;51.072;17.174;2023-02-28T02:56:12;38.87;;;18.40;;
9076;SDS011;4574;51.072;17.174;2023-02-28T02:58:42;33.60;;;17.77;;
9076;SDS011;4574;51.072;17.174;2023-02-28T03:01:14;32.03;;;17.27;;
9076;SDS011;4574;51.072;17.174;2023-02-28T03:03:56;32.83;;;17.73;;
9076;SDS011;4574;51.072;17.174;2023-02-28T03:06:28;38.53;;;19.80;;
9076;SDS011;4574;51.072;17.174;2023-02-28T03:08:56;45.13;;;21.50;;
9076;SDS011;4574;51.072;17.174;2023-02-28T03:11:25;40.53;;;20.80;;
9076;SDS011;4574;51.072;17.174;2023-02-28T03:14:00;37.23;;;21.23;;
9076;SDS011;4574;51.072;17.174;2023-02-28T03:16:49;36.23;;;20.53;;
9076;SDS011;4574;51.072;17.174;2023-02-28T03:22:22;35.40;;;20.20;;
9076;SDS011;4574;51.072;17.174;2023-02-28T03:25:01;38.30;;;20.33;;
9076;SDS011;4574;51.072;17.174;2023-02-28T03:27:36;34.23;;;19.03;;
9076;SDS011;4574;51.072;17.174;2023-02-28T03:30:10;36.77;;;19.73;;
9076;SDS011;4574;51.072;17.174;2023-02-28T03:32:50;33.83;;;20.60;;
9076;SDS011;4574;51.072;17.174;2023-02-28T03:35:23;34.00;;;19.63;;
9076;SDS011;4574;51.072;17.174;2023-02-28T03:37:59;33.30;;;19.63;;
9076;SDS011;4574;51.072;17.174;2023-02-28T03:40:32;32.60;;;17.97;;
9076;SDS011;4574;51.072;17.174;2023-02-28T03:43:03;35.90;;;19.53;;
9076;SDS011;4574;51.072;17.174;2023-02-28T03:45:40;36.60;;;18.63;;
9076;SDS011;4574;51.072;17.174;2023-02-28T03:48:12;38.90;;;19.40;;
9076;SDS011;4574;51.072;17.174;2023-02-28T03:50:45;30.50;;;17.07;;
9076;SDS011;4574;51.072;17.174;2023-02-28T03:53:19;30.77;;;16.73;;
9076;SDS011;4574;51.072;17.174;2023-02-28T03:55:53;31.27;;;16.40;;
9076;SDS011;4574;51.072;17.174;2023-02-28T03:58:27;31.33;;;15.67;;
9076;SDS011;4574;51.072;17.174;2023-02-28T04:01:02;27.10;;;15.83;;
9076;SDS011;4574;51.072;17.174;2023-02-28T04:03:35;29.27;;;15.43;;
9076;SDS011;4574;51.072;17.174;2023-02-28T04:06:05;27.17;;;15.43;;
9076;SDS011;4574;51.072;17.174;2023-02-28T04:08:42;29.47;;;16.27;;
9076;SDS011;4574;51.072;17.174;2023-02-28T04:11:19;31.13;;;14.70;;
9076;SDS011;4574;51.072;17.174;2023-02-28T04:13:52;29.07;;;14.77;;
9076;SDS011;4574;51.072;17.174;2023-02-28T04:16:20;25.20;;;13.97;;
9076;SDS011;4574;51.072;17.174;2023-02-28T04:19:01;24.20;;;12.70;;
9076;SDS011;4574;51.072;17.174;2023-02-28T04:21:32;22.13;;;13.03;;
9076;SDS011;4574;51.072;17.174;2023-02-28T04:24:04;26.27;;;14.10;;
9076;SDS011;4574;51.072;17.174;2023-02-28T04:26:33;25.20;;;13.07;;
9076;SDS011;4574;51.072;17.174;2023-02-28T04:29:05;23.07;;;12.30;;
9076;SDS011;4574;51.072;17.174;2023-02-28T04:31:34;25.90;;;13.83;;
9076;SDS011;4574;51.072;17.174;2023-02-28T04:34:03;31.37;;;15.00;;
9076;SDS011;4574;51.072;17.174;2023-02-28T04:36:32;27.90;;;13.73;;
9076;SDS011;4574;51.072;17.174;2023-02-28T04:39:00;32.93;;;15.00;;
9076;SDS011;4574;51.072;17.174;2023-02-28T04:41:32;28.00;;;14.00;;
9076;SDS011;4574;51.072;17.174;2023-02-28T04:44:00;20.97;;;12.77;;
9076;SDS011;4574;51.072;17.174;2023-02-28T04:46:29;27.93;;;13.53;;
9076;SDS011;4574;51.072;17.174;2023-02-28T04:48:58;23.83;;;13.47;;
9076;SDS011;4574;51.072;17.174;2023-02-28T04:51:27;30.33;;;14.17;;
9076;SDS011;4574;51.072;17.174;2023-02-28T04:53:56;27.80;;;14.10;;
9076;SDS011;4574;51.072;17.174;2023-02-28T04:56:24;23.67;;;14.77;;
9076;SDS011;4574;51.072;17.174;2023-02-28T04:58:54;32.87;;;16.63;;
9076;SDS011;4574;51.072;17.174;2023-02-28T05:01:24;44.40;;;22.50;;
9076;SDS011;4574;51.072;17.174;2023-02-28T05:03:55;44.67;;;22.00;;
9076;SDS011;4574;51.072;17.174;2023-02-28T05:06:26;37.50;;;19.90;;
9076;SDS011;4574;51.072;17.174;2023-02-28T05:08:56;38.90;;;19.07;;
9076;SDS011;4574;51.072;17.174;2023-02-28T05:11:26;31.37;;;16.70;;
9076;SDS011;4574;51.072;17.174;2023-02-28T05:14:02;28.63;;;14.93;;
9076;SDS011;4574;51.072;17.174;2023-02-28T05:16:33;25.63;;;14.97;;
9076;SDS011;4574;51.072;17.174;2023-02-28T05:19:01;26.70;;;13.53;;
9076;SDS011;4574;51.072;17.174;2023-02-28T05:21:30;24.50;;;12.83;;
9076;SDS011;4574;51.072;17.174;2023-02-28T05:24:01;22.03;;;13.80;;
9076;SDS011;4574;51.072;17.174;2023-02-28T05:26:33;26.23;;;13.70;;
9076;SDS011;4574;51.072;17.174;2023-02-28T05:29:04;31.37;;;15.57;;
9076;SDS011;4574;51.072;17.174;2023-02-28T05:31:33;27.77;;;15.10;;
9076;SDS011;4574;51.072;17.174;2023-02-28T05:34:02;30.40;;;15.63;;
9076;SDS011;4574;51.072;17.174;2023-02-28T05:36:31;27.97;;;15.70;;
9076;SDS011;4574;51.072;17.174;2023-02-28T05:39:00;30.37;;;16.83;;
9076;SDS011;4574;51.072;17.174;2023-02-28T05:41:30;26.10;;;15.90;;
9076;SDS011;4574;51.072;17.174;2023-02-28T05:43:58;28.33;;;16.57;;
9076;SDS011;4574;51.072;17.174;2023-02-28T05:46:29;32.73;;;17.20;;
9076;SDS011;4574;51.072;17.174;2023-02-28T05:48:57;33.93;;;16.07;;
9076;SDS011;4574;51.072;17.174;2023-02-28T05:51:27;26.93;;;15.57;;
9076;SDS011;4574;51.072;17.174;2023-02-28T05:54:00;24.47;;;15.07;;
9076;SDS011;4574;51.072;17.174;2023-02-28T05:56:29;34.60;;;15.80;;
9076;SDS011;4574;51.072;17.174;2023-02-28T05:58:57;26.23;;;15.50;;
9076;SDS011;4574;51.072;17.174;2023-02-28T06:01:32;33.73;;;15.87;;
9076;SDS011;4574;51.072;17.174;2023-02-28T06:04:02;26.97;;;16.40;;
9076;SDS011;4574;51.072;17.174;2023-02-28T06:06:32;31.93;;;17.23;;
9076;SDS011;4574;51.072;17.174;2023-02-28T06:09:03;35.03;;;17.67;;
9076;SDS011;4574;51.072;17.174;2023-02-28T06:11:31;29.20;;;17.30;;
9076;SDS011;4574;51.072;17.174;2023-02-28T06:14:01;31.00;;;16.67;;
9076;SDS011;4574;51.072;17.174;2023-02-28T06:16:32;30.90;;;17.67;;
9076;SDS011;4574;51.072;17.174;2023-02-28T06:19:03;31.10;;;18.03;;
9076;SDS011;4574;51.072;17.174;2023-02-28T06:21:32;62.97;;;28.30;;
9076;SDS011;4574;51.072;17.174;2023-02-28T06:24:01;50.40;;;23.67;;
9076;SDS011;4574;51.072;17.174;2023-02-28T06:26:30;81.80;;;38.40;;
9076;SDS011;4574;51.072;17.174;2023-02-28T06:28:59;79.87;;;37.27;;
9076;SDS011;4574;51.072;17.174;2023-02-28T06:31:28;76.17;;;35.27;;
9076;SDS011;4574;51.072;17.174;2023-02-28T06:33:58;69.37;;;33.40;;
9076;SDS011;4574;51.072;17.174;2023-02-28T06:36:27;101.53;;;39.40;;
9076;SDS011;4574;51.072;17.174;2023-02-28T06:38:55;94.63;;;38.17;;
9076;SDS011;4574;51.072;17.174;2023-02-28T06:41:24;78.57;;;33.33;;
9076;SDS011;4574;51.072;17.174;2023-02-28T06:43:56;66.17;;;29.47;;
9076;SDS011;4574;51.072;17.174;2023-02-28T06:46:25;56.07;;;26.57;;
9076;SDS011;4574;51.072;17.174;2023-02-28T06:48:54;43.47;;;22.90;;
9076;SDS011;4574;51.072;17.174;2023-02-28T06:51:24;34.80;;;18.43;;
9076;SDS011;4574;51.072;17.174;2023-02-28T06:53:54;31.47;;;17.47;;
9076;SDS011;4574;51.072;17.174;2023-02-28T06:56:22;26.93;;;15.37;;
9076;SDS011;4574;51.072;17.174;2023-02-28T06:58:50;25.97;;;15.90;;
9076;SDS011;4574;51.072;17.174;2023-02-28T07:01:19;23.37;;;15.50;;
9076;SDS011;4574;51.072;17.174;2023-02-28T07:03:49;25.63;;;15.70;;
9076;SDS011;4574;51.072;17.174;2023-02-28T07:06:19;22.97;;;13.77;;
9076;SDS011;4574;51.072;17.174;2023-02-28T07:08:50;25.67;;;15.67;;
9076;SDS011;4574;51.072;17.174;2023-02-28T07:11:21;25.97;;;15.60;;
9076;SDS011;4574;51.072;17.174;2023-02-28T07:13:52;68.37;;;31.90;;
9076;SDS011;4574;51.072;17.174;2023-02-28T07:16:21;54.07;;;26.87;;
9076;SDS011;4574;51.072;17.174;2023-02-28T07:18:52;34.60;;;18.60;;
9076;SDS011;4574;51.072;17.174;2023-02-28T07:21:21;24.67;;;14.30;;
9076;SDS011;4574;51.072;17.174;2023-02-28T07:23:51;24.63;;;13.87;;
9076;SDS011;4574;51.072;17.174;2023-02-28T07:26:20;25.13;;;13.73;;
9076;SDS011;4574;51.072;17.174;2023-02-28T07:28:49;24.10;;;13.67;;
9076;SDS011;4574;51.072;17.174;2023-02-28T07:31:17;23.77;;;13.17;;
9076;SDS011;4574;51.072;17.174;2023-02-28T07:33:46;21.27;;;11.60;;
9076;SDS011;4574;51.072;17.174;2023-02-28T07:36:15;18.93;;;11.43;;
9076;SDS011;4574;51.072;17.174;2023-02-28T07:38:46;22.90;;;12.67;;
9076;SDS011;4574;51.072;17.174;2023-02-28T07:41:18;26.83;;;14.57;;
9076;SDS011;4574;51.072;17.174;2023-02-28T07:43:48;20.63;;;14.13;;
9076;SDS011;4574;51.072;17.174;2023-02-28T07:46:17;20.87;;;12.83;;
9076;SDS011;4574;51.072;17.174;2023-02-28T07:48:47;16.00;;;10.23;;
9076;SDS011;4574;51.072;17.174;2023-02-28T07:51:16;20.03;;;11.07;;
9076;SDS011;4574;51.072;17.174;2023-02-28T07:53:44;16.40;;;10.10;;
9076;SDS011;4574;51.072;17.174;2023-02-28T07:56:13;13.60;;;9.40;;
9076;SDS011;4574;51.072;17.174;2023-02-28T07:58:43;13.80;;;9.17;;
9076;SDS011;4574;51.072;17.174;2023-02-28T08:01:11;15.67;;;9.33;;
9076;SDS011;4574;51.072;17.174;2023-02-28T08:03:40;13.93;;;9.43;;
9076;SDS011;4574;51.072;17.174;2023-02-28T08:06:15;13.90;;;9.50;;
9076;SDS011;4574;51.072;17.174;2023-02-28T08:08:45;11.33;;;8.13;;
9076;SDS011;4574;51.072;17.174;2023-02-28T08:11:14;9.87;;;7.97;;
9076;SDS011;4574;51.072;17.174;2023-02-28T08:13:45;11.53;;;7.10;;
9076;SDS011;4574;51.072;17.174;2023-02-28T08:16:15;9.60;;;7.40;;
9076;SDS011;4574;51.072;17.174;2023-02-28T08:18:49;10.37;;;7.30;;
9076;SDS011;4574;51.072;17.174;2023-02-28T08:21:18;10.30;;;6.87;;
9076;SDS011;4574;51.072;17.174;2023-02-28T08:23:48;8.87;;;6.07;;
9076;SDS011;4574;51.072;17.174;2023-02-28T08:26:18;8.43;;;5.87;;
9076;SDS011;4574;51.072;17.174;2023-02-28T08:28:49;9.67;;;6.47;;
9076;SDS011;4574;51.072;17.174;2023-02-28T08:31:18;7.83;;;5.87;;
9076;SDS011;4574;51.072;17.174;2023-02-28T08:33:47;10.03;;;6.13;;
9076;SDS011;4574;51.072;17.174;2023-02-28T08:36:18;8.07;;;6.03;;
9076;SDS011;4574;51.072;17.174;2023-02-28T08:38:48;10.83;;;7.13;;
9076;SDS011;4574;51.072;17.174;2023-02-28T08:41:16;14.50;;;8.00;;
9076;SDS011;4574;51.072;17.174;2023-02-28T08:43:45;13.40;;;7.60;;
9076;SDS011;4574;51.072;17.174;2023-02-28T08:46:14;10.73;;;7.50;;
9076;SDS011;4574;51.072;17.174;2023-02-28T08:48:43;14.43;;;7.40;;
9076;SDS011;4574;51.072;17.174;2023-02-28T08:51:13;39.17;;;12.67;;
9076;SDS011;4574;51.072;17.174;2023-02-28T08:53:45;15.63;;;7.50;;
9076;SDS011;4574;51.072;17.174;2023-02-28T08:56:16;9.10;;;5.90;;
9076;SDS011;4574;51.072;17.174;2023-02-28T08:58:45;9.17;;;5.63;;
9076;SDS011;4574;51.072;17.174;2023-02-28T09:01:16;8.10;;;5.83;;
9076;SDS011;4574;51.072;17.174;2023-02-28T09:03:47;12.97;;;6.10;;
9076;SDS011;4574;51.072;17.174;2023-02-28T09:06:17;8.50;;;5.33;;
9076;SDS011;4574;51.072;17.174;2023-02-28T09:08:47;10.03;;;6.43;;
9076;SDS011;4574;51.072;17.174;2023-02-28T09:11:16;9.20;;;5.80;;
9076;SDS011;4574;51.072;17.174;2023-02-28T09:13:45;9.87;;;5.93;;
9076;SDS011;4574;51.072;17.174;2023-02-28T09:16:16;7.23;;;4.70;;
9076;SDS011;4574;51.072;17.174;2023-02-28T09:18:45;8.30;;;5.23;;
9076;SDS011;4574;51.072;17.174;2023-02-28T09:21:14;10.50;;;5.47;;
9076;SDS011;4574;51.072;17.174;2023-02-28T09:23:44;10.57;;;5.77;;
9076;SDS011;4574;51.072;17.174;2023-02-28T09:26:18;9.20;;;5.60;;
9076;SDS011;4574;51.072;17.174;2023-02-28T09:28:49;10.07;;;6.57;;
9076;SDS011;4574;51.072;17.174;2023-02-28T09:31:21;10.50;;;5.87;;
9076;SDS011;4574;51.072;17.174;2023-02-28T09:33:53;8.43;;;6.20;;
9076;SDS011;4574;51.072;17.174;2023-02-28T09:36:23;10.87;;;7.00;;
9076;SDS011;4574;51.072;17.174;2023-02-28T09:39:09;11.70;;;6.63;;
9076;SDS011;4574;51.072;17.174;2023-02-28T09:41:39;10.40;;;5.90;;
9076;SDS011;4574;51.072;17.174;2023-02-28T09:44:16;11.67;;;7.00;;
9076;SDS011;4574;51.072;17.174;2023-02-28T09:46:51;10.43;;;6.73;;
9076;SDS011;4574;51.072;17.174;2023-02-28T09:49:24;9.97;;;6.67;;
9076;SDS011;4574;51.072;17.174;2023-02-28T09:51:57;8.67;;;6.10;;
9076;SDS011;4574;51.072;17.174;2023-02-28T09:54:29;14.00;;;7.63;;
9076;SDS011;4574;51.072;17.174;2023-02-28T09:57:01;10.57;;;6.90;;
9076;SDS011;4574;51.072;17.174;2023-02-28T09:59:44;10.23;;;6.03;;
9076;SDS011;4574;51.072;17.174;2023-02-28T10:02:32;12.53;;;7.00;;
9076;SDS011;4574;51.072;17.174;2023-02-28T10:05:21;10.43;;;6.53;;
9076;SDS011;4574;51.072;17.174;2023-02-28T10:07:58;8.63;;;6.47;;
9076;SDS011;4574;51.072;17.174;2023-02-28T10:10:33;10.93;;;5.80;;
9076;SDS011;4574;51.072;17.174;2023-02-28T10:13:12;8.10;;;5.47;;
9076;SDS011;4574;51.072;17.174;2023-02-28T10:15:45;7.53;;;5.30;;
9076;SDS011;4574;51.072;17.174;2023-02-28T10:18:19;8.23;;;5.27;;
9076;SDS011;4574;51.072;17.174;2023-02-28T10:20:51;8.80;;;5.40;;
9076;SDS011;4574;51.072;17.174;2023-02-28T10:23:23;8.87;;;5.33;;
9076;SDS011;4574;51.072;17.174;2023-02-28T10:25:56;6.33;;;4.93;;
9076;SDS011;4574;51.072;17.174;2023-02-28T10:28:28;8.20;;;5.37;;
9076;SDS011;4574;51.072;17.174;2023-02-28T10:30:58;6.00;;;4.60;;
9076;SDS011;4574;51.072;17.174;2023-02-28T10:33:30;9.10;;;4.90;;
9076;SDS011;4574;51.072;17.174;2023-02-28T10:36:01;6.67;;;4.93;;
9076;SDS011;4574;51.072;17.174;2023-02-28T10:38:33;7.97;;;5.67;;
9076;SDS011;4574;51.072;17.174;2023-02-28T10:41:03;6.70;;;5.03;;
9076;SDS011;4574;51.072;17.174;2023-02-28T10:43:34;8.93;;;5.50;;
9076;SDS011;4574;51.072;17.174;2023-02-28T10:46:04;13.43;;;5.80;;
9076;SDS011;4574;51.072;17.174;2023-02-28T10:48:43;8.53;;;5.60;;
9076;SDS011;4574;51.072;17.174;2023-02-28T10:51:15;8.30;;;5.20;;
9076;SDS011;4574;51.072;17.174;2023-02-28T10:53:48;10.43;;;5.30;;
9076;SDS011;4574;51.072;17.174;2023-02-28T10:56:27;7.23;;;5.87;;
9076;SDS011;4574;51.072;17.174;2023-02-28T10:58:58;7.90;;;5.53;;
9076;SDS011;4574;51.072;17.174;2023-02-28T11:01:35;8.17;;;5.13;;
9076;SDS011;4574;51.072;17.174;2023-02-28T11:04:17;8.50;;;5.67;;
9076;SDS011;4574;51.072;17.174;2023-02-28T11:06:51;7.33;;;5.27;;
9076;SDS011;4574;51.072;17.174;2023-02-28T11:09:26;11.03;;;5.33;;
9076;SDS011;4574;51.072;17.174;2023-02-28T11:11:58;8.10;;;5.43;;
9076;SDS011;4574;51.072;17.174;2023-02-28T11:14:29;8.70;;;5.50;;
9076;SDS011;4574;51.072;17.174;2023-02-28T11:17:02;9.20;;;5.53;;
9076;SDS011;4574;51.072;17.174;2023-02-28T11:19:45;10.20;;;5.43;;
9076;SDS011;4574;51.072;17.174;2023-02-28T11:22:18;7.27;;;5.30;;
9076;SDS011;4574;51.072;17.174;2023-02-28T11:24:50;10.30;;;5.50;;
9076;SDS011;4574;51.072;17.174;2023-02-28T11:27:25;7.83;;;5.47;;
9076;SDS011;4574;51.072;17.174;2023-02-28T11:30:22;7.17;;;4.97;;
9076;SDS011;4574;51.072;17.174;2023-02-28T11:32:53;7.23;;;4.73;;
9076;SDS011;4574;51.072;17.174;2023-02-28T11:35:24;9.60;;;6.07;;
9076;SDS011;4574;51.072;17.174;2023-02-28T11:37:56;8.73;;;6.27;;
9076;SDS011;4574;51.072;17.174;2023-02-28T11:40:28;7.30;;;5.20;;
9076;SDS011;4574;51.072;17.174;2023-02-28T11:43:07;8.83;;;5.33;;
9076;SDS011;4574;51.072;17.174;2023-02-28T11:45:51;8.33;;;5.93;;
9076;SDS011;4574;51.072;17.174;2023-02-28T11:48:32;7.03;;;5.37;;
9076;SDS011;4574;51.072;17.174;2023-02-28T11:51:12;7.40;;;4.67;;
9076;SDS011;4574;51.072;17.174;2023-02-28T11:53:51;6.57;;;4.90;;
9076;SDS011;4574;51.072;17.174;2023-02-28T11:56:32;8.70;;;5.20;;
9076;SDS011;4574;51.072;17.174;2023-02-28T11:59:12;10.13;;;5.20;;
9076;SDS011;4574;51.072;17.174;2023-02-28T12:02:02;7.60;;;5.27;;
9076;SDS011;4574;51.072;17.174;2023-02-28T12:04:46;7.93;;;5.60;;
9076;SDS011;4574;51.072;17.174;2023-02-28T12:07:26;8.80;;;5.90;;
9076;SDS011;4574;51.072;17.174;2023-02-28T12:10:05;8.20;;;5.80;;
9076;SDS011;4574;51.072;17.174;2023-02-28T12:12:47;10.37;;;6.00;;
9076;SDS011;4574;51.072;17.174;2023-02-28T12:15:34;9.63;;;5.83;;
9076;SDS011;4574;51.072;17.174;2023-02-28T12:18:23;7.97;;;5.77;;
9076;SDS011;4574;51.072;17.174;2023-02-28T12:21:09;10.13;;;5.83;;
9076;SDS011;4574;51.072;17.174;2023-02-28T12:23:47;11.83;;;7.00;;
9076;SDS011;4574;51.072;17.174;2023-02-28T12:26:27;10.87;;;6.23;;
9076;SDS011;4574;51.072;17.174;2023-02-28T12:29:16;9.40;;;6.70;;
9076;SDS011;4574;51.072;17.174;2023-02-28T12:31:51;9.03;;;6.10;;
9076;SDS011;4574;51.072;17.174;2023-02-28T12:34:22;8.40;;;6.10;;
9076;SDS011;4574;51.072;17.174;2023-02-28T12:36:56;12.30;;;6.53;;
9076;SDS011;4574;51.072;17.174;2023-02-28T12:39:30;10.40;;;6.60;;
9076;SDS011;4574;51.072;17.174;2023-02-28T12:42:17;14.10;;;7.73;;
9076;SDS011;4574;51.072;17.174;2023-02-28T12:44:52;11.90;;;7.77;;
9076;SDS011;4574;51.072;17.174;2023-02-28T12:47:24;12.30;;;8.20;;
9076;SDS011;4574;51.072;17.174;2023-02-28T12:49:55;12.87;;;7.10;;
9076;SDS011;4574;51.072;17.174;2023-02-28T12:52:29;16.27;;;8.83;;
9076;SDS011;4574;51.072;17.174;2023-02-28T12:55:07;11.17;;;7.87;;
9076;SDS011;4574;51.072;17.174;2023-02-28T12:57:45;16.37;;;9.40;;
9076;SDS011;4574;51.072;17.174;2023-02-28T13:00:19;13.30;;;7.83;;
9076;SDS011;4574;51.072;17.174;2023-02-28T13:02:54;12.50;;;8.70;;
9076;SDS011;4574;51.072;17.174;2023-02-28T13:05:46;19.17;;;12.07;;
9076;SDS011;4574;51.072;17.174;2023-02-28T13:11:38;17.73;;;8.30;;
9076;SDS011;4574;51.072;17.174;2023-02-28T13:14:16;24.90;;;10.10;;
9076;SDS011;4574;51.072;17.174;2023-02-28T13:17:00;9.70;;;7.00;;
9076;SDS011;4574;51.072;17.174;2023-02-28T13:19:32;12.80;;;7.50;;
9076;SDS011;4574;51.072;17.174;2023-02-28T13:22:02;11.80;;;7.63;;
9076;SDS011;4574;51.072;17.174;2023-02-28T13:24:42;13.60;;;8.30;;
9076;SDS011;4574;51.072;17.174;2023-02-28T13:33:26;14.40;;;9.23;;
9076;SDS011;4574;51.072;17.174;2023-02-28T13:36:10;15.43;;;9.70;;
9076;SDS011;4574;51.072;17.174;2023-02-28T13:38:51;14.90;;;10.23;;
9076;SDS011;4574;51.072;17.174;2023-02-28T13:41:40;11.43;;;8.80;;
9076;SDS011;4574;51.072;17.174;2023-02-28T13:44:12;15.33;;;9.37;;
9076;SDS011;4574;51.072;17.174;2023-02-28T13:52:53;15.83;;;10.20;;
9076;SDS011;4574;51.072;17.174;2023-02-28T13:55:43;13.70;;;9.37;;
9076;SDS011;4574;51.072;17.174;2023-02-28T13:58:22;13.70;;;8.93;;
9076;SDS011;4574;51.072;17.174;2023-02-28T14:01:11;20.10;;;9.00;;
9076;SDS011;4574;51.072;17.174;2023-02-28T14:03:55;14.03;;;9.93;;
9076;SDS011;4574;51.072;17.174;2023-02-28T14:06:31;16.97;;;11.07;;
9076;SDS011;4574;51.072;17.174;2023-02-28T14:09:05;16.73;;;11.27;;
9076;SDS011;4574;51.072;17.174;2023-02-28T14:11:46;17.93;;;10.83;;
9076;SDS011;4574;51.072;17.174;2023-02-28T14:17:19;14.67;;;9.13;;
9076;SDS011;4574;51.072;17.174;2023-02-28T14:19:47;16.07;;;9.67;;
9076;SDS011;4574;51.072;17.174;2023-02-28T14:22:19;15.97;;;10.10;;
9076;SDS011;4574;51.072;17.174;2023-02-28T14:25:13;18.67;;;12.37;;
9076;SDS011;4574;51.072;17.174;2023-02-28T14:27:57;17.27;;;10.70;;
9076;SDS011;4574;51.072;17.174;2023-02-28T14:30:51;19.90;;;11.83;;
9076;SDS011;4574;51.072;17.174;2023-02-28T14:33:30;42.60;;;20.60;;
9076;SDS011;4574;51.072;17.174;2023-02-28T14:36:16;19.77;;;11.77;;
9076;SDS011;4574;51.072;17.174;2023-02-28T14:38:49;19.60;;;11.10;;
9076;SDS011;4574;51.072;17.174;2023-02-28T14:41:23;16.83;;;10.43;;
9076;SDS011;4574;51.072;17.174;2023-02-28T14:44:03;17.67;;;10.20;;
9076;SDS011;4574;51.072;17.174;2023-02-28T14:46:43;19.53;;;10.33;;
9076;SDS011;4574;51.072;17.174;2023-02-28T14:49:19;18.57;;;10.50;;
9076;SDS011;4574;51.072;17.174;2023-02-28T14:52:00;31.07;;;15.60;;
9076;SDS011;4574;51.072;17.174;2023-02-28T14:54:31;17.13;;;9.67;;
9076;SDS011;4574;51.072;17.174;2023-02-28T14:57:03;13.00;;;8.90;;
9076;SDS011;4574;51.072;17.174;2023-02-28T14:59:33;15.87;;;10.87;;
9076;SDS011;4574;51.072;17.174;2023-02-28T15:02:16;18.53;;;12.27;;
9076;SDS011;4574;51.072;17.174;2023-02-28T15:04:55;15.03;;;9.03;;
9076;SDS011;4574;51.072;17.174;2023-02-28T15:07:25;16.07;;;9.43;;
9076;SDS011;4574;51.072;17.174;2023-02-28T15:10:13;12.13;;;8.73;;
9076;SDS011;4574;51.072;17.174;2023-02-28T15:12:48;14.47;;;9.37;;
9076;SDS011;4574;51.072;17.174;2023-02-28T15:15:23;15.57;;;9.17;;
9076;SDS011;4574;51.072;17.174;2023-02-28T15:18:06;13.97;;;8.97;;
9076;SDS011;4574;51.072;17.174;2023-02-28T15:20:40;14.73;;;9.70;;
9076;SDS011;4574;51.072;17.174;2023-02-28T15:23:12;14.97;;;9.67;;
9076;SDS011;4574;51.072;17.174;2023-02-28T15:25:42;16.10;;;10.00;;
9076;SDS011;4574;51.072;17.174;2023-02-28T15:28:12;13.97;;;9.87;;
9076;SDS011;4574;51.072;17.174;2023-02-28T15:30:51;21.37;;;10.87;;
9076;SDS011;4574;51.072;17.174;2023-02-28T15:33:23;21.03;;;13.07;;
9076;SDS011;4574;51.072;17.174;2023-02-28T15:36:05;13.93;;;9.83;;
9076;SDS011;4574;51.072;17.174;2023-02-28T15:38:38;16.97;;;10.60;;
9076;SDS011;4574;51.072;17.174;2023-02-28T15:41:20;14.53;;;9.63;;
9076;SDS011;4574;51.072;17.174;2023-02-28T15:46:45;16.93;;;11.47;;
9076;SDS011;4574;51.072;17.174;2023-02-28T15:49:24;17.97;;;11.23;;
9076;SDS011;4574;51.072;17.174;2023-02-28T15:51:55;14.47;;;9.80;;